Hauptseite
METAR-TAF:

METAR-TAF

Flughäfen :

Fritzlar, Deutschland

Heeresflugplatz Fritzlar

Breite: 51-07N, Länge: 009-17E, Höhe: 172 m

Beobachtung

Neuester Wetterbericht von vor 1 Stunde und 2 Minuten, um 14:20 UTC
Wind 7 kt aus Nordost
Temperatur 23°C
Luftfeuchtigkeit 44%
Luftdruck 1019 hPa
Sichtweite 10 km oder mehr
Leicht bewölkt in der Höhe von 6000 ft

METAR: ETHF 211420Z 04007KT 9999 FEW060 23/10 Q1019 BLU+

Zeit: 17:22 (15:22 UTC)

Prognose

Neuester Wetterbericht von vor 28 Stunden und 51 Minuten, um 10:31 UTC
Gültige Prognose vom 20 um 08 UTC bis 20 um 17 UTC
Wind 6 kt aus Süd
Sichtweite: 1030 m
Durchbrochene Bewölkung in der Höhe von 35000 ft

TAF: ETHF 201031Z 2008/2017 17006KT 9999 NSW BKN350 CANCEL 1030

Wetterbeobachtungen und Prognosen von mehr als 4000 Flughäfen (METAR und TAF Bericht).

Die verfügbaren Stationen werden durch gelbe und rote Markierungen auf der Karte dargestellt.

Führen Sie die Maus auf sie, um den Namen der Station zu sehen.

Darauf klicken, um die Beobachtung von Wetterbeobachtungen und Prognosen zu sehen.

Um die Karte zu ändern : klicken Sie auf den grünen Tasten mit einem schwarzen Kreuz Zum Vergrößern, auf den grünen Button mit einem Gedankenstrich zu verkleinern, oder auf die grünen Pfeile für benachbarte Karten.


METAR-TAF: